createdAt,value
2019-05-02T00:01:49.076Z,31.68
2019-05-02T00:04:20.109Z,31.77
2019-05-02T00:06:50.382Z,30.23
2019-05-02T00:09:19.709Z,29.37
2019-05-02T00:11:58.477Z,31.15
2019-05-02T00:14:33.878Z,31.97
2019-05-02T00:16:58.974Z,34.48
2019-05-02T00:19:27.521Z,33.40
2019-05-02T00:21:55.943Z,34.92
2019-05-02T00:24:25.616Z,32.48
2019-05-02T00:26:56.214Z,36.73
2019-05-02T00:29:25.052Z,37.83
2019-05-02T00:31:53.622Z,34.85
2019-05-02T00:34:22.880Z,32.78
2019-05-02T00:36:52.776Z,36.28
2019-05-02T00:41:49.355Z,35.25
2019-05-02T00:44:17.679Z,34.90
2019-05-02T00:46:46.256Z,34.27
2019-05-02T00:49:14.781Z,36.65
2019-05-02T00:51:43.579Z,36.90
2019-05-02T00:54:12.145Z,34.08
2019-05-02T00:56:44.203Z,32.50
2019-05-02T00:59:10.881Z,34.33
2019-05-02T01:02:00.128Z,34.40
2019-05-02T01:04:34.047Z,32.75
2019-05-02T01:07:03.725Z,31.68
2019-05-02T01:09:34.132Z,32.60
2019-05-02T01:12:03.158Z,33.45
2019-05-02T01:14:33.293Z,36.40
2019-05-02T01:17:02.166Z,35.50
2019-05-02T01:19:30.541Z,33.13
2019-05-02T01:21:58.981Z,31.57
2019-05-02T01:24:27.445Z,32.90
2019-05-02T01:27:13.780Z,33.75
2019-05-02T01:29:43.988Z,33.02
2019-05-02T01:32:14.032Z,34.53
2019-05-02T01:37:29.229Z,29.15
2019-05-02T01:39:57.827Z,32.90
2019-05-02T01:42:38.736Z,35.88
2019-05-02T01:44:56.515Z,34.38
2019-05-02T01:47:29.055Z,34.55
2019-05-02T01:52:24.964Z,34.67
2019-05-02T01:54:53.594Z,33.00
2019-05-02T01:57:21.987Z,26.87
2019-05-02T01:59:50.420Z,25.45
2019-05-02T02:02:18.845Z,24.70
2019-05-02T02:04:47.494Z,26.82
2019-05-02T02:07:20.132Z,30.30
2019-05-02T02:12:14.329Z,30.97
2019-05-02T02:14:43.092Z,31.23
2019-05-02T02:17:15.487Z,30.60
2019-05-02T02:19:43.406Z,27.67
2019-05-02T02:22:16.361Z,27.22
2019-05-02T02:24:46.460Z,27.70
2019-05-02T02:29:44.120Z,24.40
2019-05-02T02:32:13.450Z,24.95
2019-05-02T02:34:41.985Z,25.15
2019-05-02T02:37:13.047Z,24.67
2019-05-02T02:39:41.010Z,27.62
2019-05-02T02:42:09.913Z,27.05
2019-05-02T02:44:51.823Z,26.17
2019-05-02T02:47:21.198Z,24.45
2019-05-02T02:49:55.930Z,28.47
2019-05-02T02:52:21.753Z,28.35
2019-05-02T02:57:26.025Z,28.42
2019-05-02T03:02:15.640Z,28.32
2019-05-02T03:04:46.035Z,23.87
2019-05-02T03:07:24.486Z,28.20
2019-05-02T03:09:46.851Z,29.10
2019-05-02T03:12:23.058Z,24.27
2019-05-02T03:14:59.044Z,25.70
2019-05-02T03:17:28.714Z,28.02
2019-05-02T03:22:27.446Z,28.10
2019-05-02T03:24:55.821Z,28.27
2019-05-02T03:27:29.712Z,25.65
2019-05-02T03:29:54.422Z,28.35
2019-05-02T03:32:33.037Z,27.77
2019-05-02T03:34:54.246Z,29.25
2019-05-02T03:37:23.912Z,28.30
2019-05-02T03:39:57.579Z,28.62
2019-05-02T03:42:22.453Z,24.98
2019-05-02T03:44:57.241Z,25.25
2019-05-02T03:47:30.451Z,27.58
2019-05-02T03:49:58.897Z,27.00
2019-05-02T03:52:27.681Z,27.10
2019-05-02T03:54:56.620Z,27.05
2019-05-02T03:57:32.913Z,26.87
2019-05-02T04:02:25.740Z,25.88
2019-05-02T04:04:59.987Z,25.50
2019-05-02T04:09:59.972Z,25.05
2019-05-02T04:12:32.534Z,26.33
2019-05-02T04:14:58.995Z,23.38
2019-05-02T04:17:29.106Z,25.17
2019-05-02T04:19:58.516Z,24.63
2019-05-02T04:22:29.927Z,24.52
2019-05-02T04:25:06.197Z,23.25
2019-05-02T04:27:34.233Z,22.48
2019-05-02T04:30:11.445Z,23.47
2019-05-02T04:32:37.665Z,22.35
2019-05-02T04:35:09.379Z,22.02
2019-05-02T04:37:43.743Z,23.22
2019-05-02T04:40:12.525Z,23.25
2019-05-02T04:42:51.244Z,22.67
2019-05-02T04:45:26.486Z,22.20
2019-05-02T04:47:54.545Z,23.55
2019-05-02T04:50:18.540Z,21.20
2019-05-02T04:55:26.037Z,23.20
2019-05-02T04:57:54.010Z,21.97
2019-05-02T05:00:38.946Z,21.90
2019-05-02T05:03:23.087Z,21.12
2019-05-02T05:05:58.773Z,21.93
2019-05-02T05:08:26.209Z,21.00
2019-05-02T05:10:58.076Z,20.55
2019-05-02T05:13:28.980Z,20.05
2019-05-02T05:15:57.463Z,21.45
2019-05-02T05:18:27.396Z,19.67
2019-05-02T05:23:28.097Z,19.00
2019-05-02T05:26:03.481Z,21.35
2019-05-02T05:28:30.098Z,19.57
2019-05-02T05:31:16.459Z,19.57
2019-05-02T05:33:42.944Z,17.87
2019-05-02T05:36:11.839Z,18.87
2019-05-02T05:38:42.084Z,19.98
2019-05-02T05:41:13.155Z,17.77
2019-05-02T05:43:50.116Z,18.60
2019-05-02T05:46:22.319Z,17.32
2019-05-02T05:48:50.967Z,17.65
2019-05-02T05:51:20.743Z,17.75
2019-05-02T05:58:59.201Z,16.77
2019-05-02T06:01:39.112Z,15.90
2019-05-02T06:04:23.378Z,17.55
2019-05-02T06:06:53.951Z,16.93
2019-05-02T06:09:21.023Z,17.02
2019-05-02T06:11:55.305Z,17.23
2019-05-02T06:14:24.894Z,16.95
2019-05-02T06:16:58.643Z,17.52
2019-05-02T06:19:36.270Z,17.25
2019-05-02T06:22:09.058Z,17.48
2019-05-02T06:24:56.004Z,18.10
2019-05-02T06:27:26.058Z,18.02
2019-05-02T06:29:57.480Z,17.07
2019-05-02T06:32:26.371Z,18.95
2019-05-02T06:34:56.890Z,18.27
2019-05-02T06:37:25.838Z,17.55
2019-05-02T06:39:56.589Z,18.90
2019-05-02T06:42:32.740Z,17.92
2019-05-02T06:45:07.547Z,18.55
2019-05-02T06:47:43.578Z,18.87
2019-05-02T06:50:16.677Z,18.15
2019-05-02T06:52:45.419Z,19.90
2019-05-02T06:55:15.619Z,17.77
2019-05-02T06:57:51.811Z,17.90
2019-05-02T07:00:35.621Z,17.85
2019-05-02T07:02:52.808Z,16.90
2019-05-02T07:05:27.168Z,17.30
2019-05-02T07:07:56.109Z,17.15
2019-05-02T07:10:33.667Z,17.82
2019-05-02T07:13:10.842Z,17.87
2019-05-02T07:16:24.039Z,17.80
2019-05-02T07:18:55.015Z,17.12
2019-05-02T07:21:24.877Z,15.85
2019-05-02T07:24:02.193Z,17.77
2019-05-02T07:26:35.069Z,17.75
2019-05-02T07:29:03.776Z,18.55
2019-05-02T07:31:34.258Z,18.62
2019-05-02T07:34:03.262Z,17.23
2019-05-02T07:36:36.402Z,16.40
2019-05-02T07:39:06.389Z,17.45
2019-05-02T07:41:38.676Z,17.23
2019-05-02T07:44:14.220Z,17.80
2019-05-02T07:46:52.117Z,18.95
2019-05-02T07:49:20.555Z,19.50
2019-05-02T07:51:52.238Z,17.92
2019-05-02T07:54:26.845Z,18.65
2019-05-02T07:57:12.735Z,18.05
2019-05-02T08:00:04.261Z,18.48
2019-05-02T08:02:34.185Z,19.07
2019-05-02T08:05:03.314Z,17.65
2019-05-02T08:07:42.943Z,18.52
2019-05-02T08:12:41.155Z,17.40
2019-05-02T08:15:13.251Z,17.70
2019-05-02T08:17:53.338Z,19.85
2019-05-02T08:20:19.176Z,18.65
2019-05-02T08:22:50.986Z,19.07
2019-05-02T08:25:19.704Z,18.42
2019-05-02T08:27:54.989Z,18.67
2019-05-02T08:30:27.715Z,17.77
2019-05-02T08:33:05.920Z,17.77
2019-05-02T08:35:35.413Z,17.92
2019-05-02T08:40:37.474Z,18.25
2019-05-02T08:43:11.832Z,18.50
2019-05-02T08:45:43.036Z,18.62
2019-05-02T08:48:11.885Z,18.40
2019-05-02T08:50:40.747Z,18.02
2019-05-02T08:53:14.280Z,18.42
2019-05-02T08:55:49.608Z,18.30
2019-05-02T08:58:20.897Z,18.37
2019-05-02T09:00:52.247Z,17.50
2019-05-02T09:03:21.169Z,18.50
2019-05-02T09:06:04.964Z,17.82
2019-05-02T09:08:23.329Z,16.90
2019-05-02T09:10:54.409Z,17.90
2019-05-02T09:13:29.105Z,18.20
2019-05-02T09:15:57.312Z,18.10
2019-05-02T09:18:35.023Z,18.17
2019-05-02T09:20:56.873Z,17.50
2019-05-02T09:23:27.592Z,18.37
2019-05-02T09:26:11.901Z,19.20
2019-05-02T09:28:36.061Z,17.40
2019-05-02T09:31:06.835Z,19.55
2019-05-02T09:33:45.182Z,18.87
2019-05-02T09:36:14.064Z,19.02
2019-05-02T09:39:07.986Z,18.57
2019-05-02T09:41:36.777Z,19.15
2019-05-02T09:44:14.546Z,19.05
2019-05-02T09:46:42.840Z,18.15
2019-05-02T09:49:16.372Z,17.80
2019-05-02T09:51:50.430Z,17.10
2019-05-02T09:54:22.832Z,18.07
2019-05-02T09:56:53.956Z,18.42
2019-05-02T09:59:50.611Z,17.52
2019-05-02T10:02:16.590Z,19.23
2019-05-02T10:05:13.270Z,16.27
2019-05-02T10:08:02.964Z,18.52
2019-05-02T10:10:37.114Z,17.15
2019-05-02T10:13:05.233Z,18.42
2019-05-02T10:15:35.769Z,16.80
2019-05-02T10:18:11.056Z,15.83
2019-05-02T10:20:36.666Z,15.30
2019-05-02T10:23:19.569Z,16.23
2019-05-02T10:25:46.916Z,17.27
2019-05-02T10:28:24.729Z,16.97
2019-05-02T10:30:56.570Z,16.82
2019-05-02T10:33:27.923Z,17.73
2019-05-02T10:35:55.242Z,16.27
2019-05-02T10:38:32.374Z,18.05
2019-05-02T10:41:02.658Z,16.25
2019-05-02T10:43:32.784Z,15.63
2019-05-02T10:46:02.959Z,16.85
2019-05-02T10:48:36.437Z,15.23
2019-05-02T10:51:18.910Z,16.37
2019-05-02T10:53:52.679Z,16.27
2019-05-02T10:56:22.133Z,15.50
2019-05-02T10:58:52.638Z,15.70
2019-05-02T11:01:22.785Z,14.45
2019-05-02T11:03:53.107Z,15.45
2019-05-02T11:06:22.425Z,14.50
2019-05-02T11:08:52.399Z,15.28
2019-05-02T11:11:21.867Z,14.28
2019-05-02T11:14:05.674Z,13.93
2019-05-02T11:16:34.691Z,12.90
2019-05-02T11:19:12.878Z,13.38
2019-05-02T11:21:54.935Z,11.93
2019-05-02T11:24:14.339Z,12.82
2019-05-02T11:26:43.022Z,13.45
2019-05-02T11:29:12.151Z,12.68
2019-05-02T11:31:42.776Z,11.00
2019-05-02T11:34:12.484Z,11.85
2019-05-02T11:39:20.664Z,11.97
2019-05-02T11:41:44.107Z,11.70
2019-05-02T11:44:12.550Z,12.37
2019-05-02T11:46:43.066Z,11.95
2019-05-02T11:49:12.707Z,13.75
2019-05-02T11:51:42.198Z,12.55
2019-05-02T11:54:13.035Z,12.45
2019-05-02T11:56:48.896Z,12.15
2019-05-02T11:59:14.979Z,12.23
2019-05-02T12:04:16.992Z,10.03
2019-05-02T12:07:01.005Z,12.98
2019-05-02T12:09:27.881Z,12.13
2019-05-02T12:11:59.793Z,12.03
2019-05-02T12:14:32.793Z,12.50
2019-05-02T12:17:02.947Z,12.65
2019-05-02T12:19:35.381Z,11.20
2019-05-02T12:22:07.278Z,11.48
2019-05-02T12:24:36.487Z,12.28
2019-05-02T12:27:06.685Z,12.63
2019-05-02T12:29:42.665Z,11.75
2019-05-02T12:32:12.036Z,11.00
2019-05-02T12:34:42.030Z,11.43
2019-05-02T12:39:45.198Z,10.30
2019-05-02T12:42:19.054Z,12.33
2019-05-02T12:44:58.815Z,11.90
2019-05-02T12:47:31.901Z,10.85
2019-05-02T12:50:11.975Z,11.08
2019-05-02T12:52:44.862Z,10.45
2019-05-02T12:55:14.869Z,10.18
2019-05-02T13:00:22.782Z,9.95
2019-05-02T13:02:54.597Z,9.85
2019-05-02T13:05:49.582Z,9.65
2019-05-02T13:08:22.797Z,9.50
2019-05-02T13:11:06.677Z,10.43
2019-05-02T13:13:46.469Z,10.10
2019-05-02T13:16:24.551Z,10.13
2019-05-02T13:19:03.079Z,10.48
2019-05-02T13:21:41.927Z,10.48
2019-05-02T13:24:16.452Z,9.68
2019-05-02T13:26:44.660Z,10.20
2019-05-02T13:29:12.971Z,10.23
2019-05-02T13:31:52.769Z,10.40
2019-05-02T13:34:25.483Z,10.50
2019-05-02T13:36:58.285Z,10.58
2019-05-02T13:39:34.482Z,10.82
2019-05-02T13:42:13.325Z,10.10
2019-05-02T13:44:46.000Z,9.75
2019-05-02T13:47:16.185Z,10.75
2019-05-02T13:49:54.156Z,10.75
2019-05-02T13:52:17.739Z,10.58
2019-05-02T13:54:56.352Z,10.38
2019-05-02T13:57:24.993Z,10.55
2019-05-02T13:59:55.628Z,9.68
2019-05-02T14:02:42.643Z,10.98
2019-05-02T14:05:12.856Z,11.08
2019-05-02T14:07:55.674Z,10.00
2019-05-02T14:10:22.833Z,9.97
2019-05-02T14:12:58.770Z,10.25
2019-05-02T14:15:29.751Z,9.55
2019-05-02T14:18:02.490Z,10.63
2019-05-02T14:20:37.124Z,9.53
2019-05-02T14:23:12.148Z,8.43
2019-05-02T14:25:42.576Z,9.53
2019-05-02T14:28:12.959Z,9.55
2019-05-02T14:30:46.365Z,8.83
2019-05-02T14:33:20.409Z,9.30
2019-05-02T14:35:49.261Z,9.60
2019-05-02T14:38:23.019Z,9.65
2019-05-02T14:40:57.402Z,9.63
2019-05-02T14:43:46.885Z,9.18
2019-05-02T14:46:17.565Z,9.45
2019-05-02T14:48:45.874Z,9.93
2019-05-02T14:51:16.805Z,9.48
2019-05-02T14:53:45.473Z,9.43
2019-05-02T14:56:22.795Z,9.10
2019-05-02T14:58:52.833Z,8.73
2019-05-02T15:01:26.091Z,9.43
2019-05-02T15:03:58.469Z,8.98
2019-05-02T15:06:26.440Z,9.93
2019-05-02T15:08:55.074Z,8.85
2019-05-02T15:11:30.410Z,9.58
2019-05-02T15:13:53.959Z,9.05
2019-05-02T15:16:29.073Z,9.60
2019-05-02T15:18:56.891Z,9.50
2019-05-02T15:21:23.393Z,9.73
2019-05-02T15:23:54.461Z,10.23
2019-05-02T15:26:26.219Z,9.08
2019-05-02T15:28:53.044Z,9.48
2019-05-02T15:31:34.346Z,9.13
2019-05-02T15:34:08.235Z,8.80
2019-05-02T15:36:42.273Z,9.23
2019-05-02T15:41:44.600Z,8.93
2019-05-02T15:44:12.770Z,8.28
2019-05-02T15:46:42.489Z,8.90
2019-05-02T15:49:12.303Z,8.33
2019-05-02T15:51:43.728Z,7.03
2019-05-02T15:54:18.858Z,7.22
2019-05-02T15:57:00.785Z,7.58
2019-05-02T15:59:37.676Z,7.30
2019-05-02T16:02:06.120Z,8.48
2019-05-02T16:04:36.416Z,8.25
2019-05-02T16:07:08.356Z,7.62
2019-05-02T16:09:36.645Z,8.73
2019-05-02T16:12:06.231Z,7.72
2019-05-02T16:14:36.288Z,8.13
2019-05-02T16:17:08.671Z,8.63
2019-05-02T16:19:40.074Z,7.85
2019-05-02T16:22:13.063Z,8.68
2019-05-02T16:24:43.972Z,8.35
2019-05-02T16:27:11.800Z,8.53
2019-05-02T16:29:41.700Z,8.33
2019-05-02T16:34:56.728Z,8.25
2019-05-02T16:37:25.163Z,8.45
2019-05-02T16:39:53.482Z,8.93
2019-05-02T16:42:24.108Z,8.13
2019-05-02T16:44:54.712Z,8.23
2019-05-02T16:47:23.561Z,8.20
2019-05-02T16:49:56.716Z,8.75
2019-05-02T16:52:27.693Z,8.03
2019-05-02T16:55:02.723Z,7.95
2019-05-02T16:57:35.962Z,8.63
2019-05-02T17:00:15.585Z,9.03
2019-05-02T17:02:47.277Z,7.95
2019-05-02T17:05:16.952Z,8.40
2019-05-02T17:08:03.644Z,8.00
2019-05-02T17:10:35.016Z,7.80
2019-05-02T17:13:04.868Z,8.58
2019-05-02T17:15:36.761Z,7.50
2019-05-02T17:18:12.954Z,7.72
2019-05-02T17:20:36.008Z,7.92
2019-05-02T17:23:07.429Z,7.58
2019-05-02T17:25:34.655Z,7.62
2019-05-02T17:28:09.742Z,8.13
2019-05-02T17:30:39.394Z,7.28
2019-05-02T17:33:07.319Z,7.40
2019-05-02T17:35:34.513Z,7.60
2019-05-02T17:38:03.547Z,9.05
2019-05-02T17:40:32.397Z,9.13
2019-05-02T17:43:05.506Z,8.33
2019-05-02T17:45:33.377Z,8.75
2019-05-02T17:48:10.397Z,9.00
2019-05-02T17:50:54.899Z,9.10
2019-05-02T17:53:22.522Z,8.83
2019-05-02T17:55:52.476Z,9.33
2019-05-02T17:58:21.573Z,9.55
2019-05-02T18:00:57.022Z,9.40
2019-05-02T18:03:34.531Z,9.55
2019-05-02T18:06:02.517Z,9.70
2019-05-02T18:08:29.300Z,9.20
2019-05-02T18:11:00.275Z,9.68
2019-05-02T18:13:34.019Z,10.43
2019-05-02T18:16:00.310Z,9.00
2019-05-02T18:18:31.802Z,9.78
2019-05-02T18:21:02.064Z,10.08
2019-05-02T18:23:32.278Z,10.40
2019-05-02T18:26:04.488Z,9.20
2019-05-02T18:28:32.504Z,10.55
2019-05-02T18:31:05.729Z,11.53
2019-05-02T18:33:35.827Z,11.22
2019-05-02T18:36:04.574Z,10.08
2019-05-02T18:38:34.390Z,10.27
2019-05-02T18:41:07.933Z,11.38
2019-05-02T18:43:43.490Z,10.98
2019-05-02T18:46:12.660Z,10.55
2019-05-02T18:48:46.766Z,12.18
2019-05-02T18:51:17.113Z,11.55
2019-05-02T18:53:45.658Z,12.43
2019-05-02T18:56:22.720Z,11.20
2019-05-02T18:58:58.090Z,11.73
2019-05-02T19:01:26.882Z,12.07
2019-05-02T19:03:56.349Z,11.33
2019-05-02T19:06:27.900Z,10.18
2019-05-02T19:08:58.014Z,10.53
2019-05-02T19:11:32.003Z,11.10
2019-05-02T19:13:59.783Z,11.05
2019-05-02T19:16:29.292Z,10.73
2019-05-02T19:19:02.031Z,10.88
2019-05-02T19:21:35.460Z,11.40
2019-05-02T19:24:02.289Z,11.08
2019-05-02T19:26:32.613Z,11.48
2019-05-02T19:29:15.723Z,11.12
2019-05-02T19:31:46.101Z,10.75
2019-05-02T19:34:16.984Z,11.35
2019-05-02T19:36:44.425Z,11.45
2019-05-02T19:39:13.708Z,10.53
2019-05-02T19:41:44.098Z,10.97
2019-05-02T19:44:15.296Z,11.53
2019-05-02T19:46:44.011Z,10.82
2019-05-02T19:49:16.273Z,10.07
2019-05-02T19:51:45.172Z,10.23
2019-05-02T19:54:14.203Z,10.40
2019-05-02T19:56:47.471Z,9.78
2019-05-02T19:59:16.739Z,10.18
2019-05-02T20:01:46.607Z,10.35
2019-05-02T20:04:18.326Z,9.90
2019-05-02T20:06:52.310Z,10.78
2019-05-02T20:09:23.169Z,11.30
2019-05-02T20:11:52.095Z,10.93
2019-05-02T20:14:21.963Z,10.05
2019-05-02T20:16:52.903Z,9.70
2019-05-02T20:19:23.234Z,9.60
2019-05-02T20:22:02.094Z,10.75
2019-05-02T20:24:29.294Z,11.95
2019-05-02T20:26:58.542Z,12.95
2019-05-02T20:29:27.072Z,12.25
2019-05-02T20:31:56.320Z,12.68
2019-05-02T20:34:24.656Z,13.07
2019-05-02T20:36:56.495Z,14.15
2019-05-02T20:39:25.191Z,13.22
2019-05-02T20:41:54.295Z,16.17
2019-05-02T20:44:23.078Z,17.37
2019-05-02T20:47:04.329Z,19.37
2019-05-02T20:49:35.014Z,18.52
2019-05-02T20:52:06.021Z,21.42
2019-05-02T20:54:37.241Z,23.05
2019-05-02T20:57:07.719Z,23.32
2019-05-02T20:59:36.431Z,22.98
2019-05-02T21:02:12.252Z,23.73
2019-05-02T21:04:45.353Z,23.92
2019-05-02T21:07:22.618Z,24.23
2019-05-02T21:10:09.599Z,24.65
2019-05-02T21:12:42.378Z,23.90
2019-05-02T21:15:18.206Z,26.02
2019-05-02T21:17:51.554Z,23.98
2019-05-02T21:20:27.280Z,25.72
2019-05-02T21:23:05.274Z,25.30
2019-05-02T21:25:35.605Z,24.57
2019-05-02T21:30:58.215Z,26.35
2019-05-02T21:33:38.556Z,25.43
2019-05-02T21:38:37.214Z,25.23
2019-05-02T21:41:12.597Z,24.85
2019-05-02T21:43:42.634Z,24.50
2019-05-02T21:46:13.376Z,25.45
2019-05-02T21:48:48.294Z,24.77
2019-05-02T21:51:25.573Z,26.93
2019-05-02T21:54:07.777Z,25.82
2019-05-02T21:56:43.041Z,24.65
2019-05-02T21:59:14.535Z,25.08
2019-05-02T22:01:55.451Z,27.30
2019-05-02T22:04:37.720Z,28.23
2019-05-02T22:07:03.800Z,28.10
2019-05-02T22:09:34.493Z,27.85
2019-05-02T22:12:04.585Z,27.60
2019-05-02T22:14:34.956Z,27.65
2019-05-02T22:17:12.840Z,28.15
2019-05-02T22:19:47.381Z,28.67
2019-05-02T22:22:17.096Z,26.20
2019-05-02T22:24:47.900Z,28.98
2019-05-02T22:27:16.424Z,27.95
2019-05-02T22:29:44.989Z,26.80
2019-05-02T22:32:18.387Z,27.77
2019-05-02T22:34:46.748Z,29.27
2019-05-02T22:37:16.751Z,27.35
2019-05-02T22:42:23.500Z,26.55
2019-05-02T22:44:52.174Z,28.17
2019-05-02T22:47:22.609Z,27.30
2019-05-02T22:49:51.835Z,28.20
2019-05-02T22:52:21.794Z,27.93
2019-05-02T22:57:17.977Z,28.67
2019-05-02T22:59:47.144Z,29.10
2019-05-02T23:02:15.517Z,27.17
2019-05-02T23:04:45.628Z,26.77
2019-05-02T23:09:43.718Z,28.20
2019-05-02T23:12:13.180Z,27.07
2019-05-02T23:14:41.896Z,28.47
2019-05-02T23:17:12.770Z,26.65
2019-05-02T23:19:42.335Z,29.18
2019-05-02T23:22:12.717Z,28.27
2019-05-02T23:24:42.949Z,25.92
2019-05-02T23:29:42.536Z,25.55
2019-05-02T23:32:11.387Z,28.23
2019-05-02T23:34:41.776Z,25.65
2019-05-02T23:37:11.953Z,24.80
2019-05-02T23:39:43.393Z,23.83
2019-05-02T23:42:13.499Z,25.62
2019-05-02T23:44:42.555Z,25.45
2019-05-02T23:47:11.705Z,26.43
2019-05-02T23:49:40.198Z,25.50
2019-05-02T23:52:08.625Z,24.72
2019-05-02T23:54:48.885Z,26.42
2019-05-02T23:59:34.797Z,26.48
